createdAt,value
2022-12-19T00:00:34.506Z,-0.90
2022-12-19T00:03:03.542Z,-1.00
2022-12-19T00:05:31.852Z,-1.50
2022-12-19T00:08:02.438Z,-1.00
2022-12-19T00:10:46.177Z,-1.00
2022-12-19T00:13:17.747Z,-0.90
2022-12-19T00:15:48.397Z,-0.90
2022-12-19T00:18:17.531Z,-0.90
2022-12-19T00:20:45.654Z,-0.90
2022-12-19T00:23:15.040Z,0.80
2022-12-19T00:25:45.887Z,-0.80
2022-12-19T00:28:19.081Z,-0.90
2022-12-19T00:30:49.398Z,-1.10
2022-12-19T00:33:19.652Z,-1.10
2022-12-19T00:35:47.831Z,-0.60
2022-12-19T00:38:23.446Z,-0.90
2022-12-19T00:40:51.468Z,-0.80
2022-12-19T00:43:21.257Z,-0.90
2022-12-19T00:45:50.893Z,-0.90
2022-12-19T00:48:19.027Z,-0.80
2022-12-19T00:50:46.896Z,-1.00
2022-12-19T00:53:14.991Z,-1.10
2022-12-19T00:55:43.355Z,-0.80
2022-12-19T00:58:11.632Z,-0.90
2022-12-19T01:00:40.886Z,-0.80
2022-12-19T01:03:13.022Z,-0.80
2022-12-19T01:05:43.421Z,-0.30
2022-12-19T01:08:13.614Z,-0.70
2022-12-19T01:10:47.110Z,-0.70
2022-12-19T01:13:14.251Z,-0.70
2022-12-19T01:15:42.871Z,-0.70
2022-12-19T01:18:12.692Z,-0.80
2022-12-19T01:20:42.668Z,-0.80
2022-12-19T01:23:11.419Z,-0.80
2022-12-19T01:25:39.920Z,-1.00
2022-12-19T01:28:16.751Z,-0.70
2022-12-19T01:30:47.453Z,-0.70
2022-12-19T01:33:23.410Z,-0.90
2022-12-19T01:35:51.780Z,-0.70
2022-12-19T01:38:23.729Z,-0.70
2022-12-19T01:40:52.838Z,-0.50
2022-12-19T01:43:21.840Z,-0.70
2022-12-19T01:45:55.059Z,-0.70
2022-12-19T01:48:32.230Z,-0.80
2022-12-19T01:51:03.839Z,-0.70
2022-12-19T01:53:45.754Z,-0.80
2022-12-19T01:56:18.204Z,-0.60
2022-12-19T01:58:49.468Z,-0.60
2022-12-19T02:01:18.931Z,-0.50
2022-12-19T02:03:49.150Z,-0.30
2022-12-19T02:06:17.486Z,-0.60
2022-12-19T02:08:47.763Z,-0.60
2022-12-19T02:11:16.315Z,-0.50
2022-12-19T02:13:46.696Z,-0.50
2022-12-19T02:16:24.007Z,-0.50
2022-12-19T02:19:09.502Z,-0.50
2022-12-19T02:21:55.994Z,-0.50
2022-12-19T02:24:59.985Z,-0.60
2022-12-19T02:27:59.311Z,-0.50
2022-12-19T02:30:52.938Z,-0.50
2022-12-19T02:33:28.701Z,-0.50
2022-12-19T02:36:05.537Z,-0.50
2022-12-19T02:38:40.473Z,-0.40
2022-12-19T02:41:14.332Z,-0.50
2022-12-19T02:43:47.546Z,-0.20
2022-12-19T02:46:22.400Z,-0.50
2022-12-19T02:48:51.216Z,-0.40
2022-12-19T02:51:19.332Z,-0.40
2022-12-19T02:53:47.837Z,-0.30
2022-12-19T02:56:39.390Z,-0.30
2022-12-19T02:59:16.759Z,0.00
2022-12-19T03:01:52.222Z,-0.30
2022-12-19T03:04:32.965Z,-0.30
2022-12-19T03:07:09.745Z,-0.20
2022-12-19T03:09:51.130Z,-0.20
2022-12-19T03:12:25.374Z,-0.10
2022-12-19T03:14:54.826Z,-0.30
2022-12-19T03:17:24.461Z,-0.30
2022-12-19T03:19:52.426Z,-0.30
2022-12-19T03:22:21.211Z,-0.30
2022-12-19T03:24:51.797Z,-0.30
2022-12-19T03:27:25.876Z,-0.30
2022-12-19T03:30:01.441Z,-0.30
2022-12-19T03:32:32.243Z,-0.20
2022-12-19T03:35:05.683Z,-0.10
2022-12-19T03:37:36.513Z,-0.10
2022-12-19T03:40:10.536Z,-0.10
2022-12-19T03:42:58.747Z,-0.10
2022-12-19T03:45:32.215Z,-0.20
2022-12-19T03:48:05.541Z,-0.20
2022-12-19T03:50:48.889Z,-0.20
2022-12-19T03:53:30.575Z,-0.20
2022-12-19T03:56:06.701Z,-0.20
2022-12-19T03:58:39.612Z,-0.10
2022-12-19T04:01:08.278Z,-0.10
2022-12-19T04:03:45.026Z,-0.10
2022-12-19T04:06:14.450Z,-0.10
2022-12-19T04:08:44.605Z,-0.20
2022-12-19T04:11:20.832Z,-0.40
2022-12-19T04:13:53.102Z,-0.20
2022-12-19T04:16:28.230Z,-0.20
2022-12-19T04:19:04.972Z,-0.20
2022-12-19T04:21:37.742Z,-0.20
2022-12-19T04:24:13.011Z,-0.20
2022-12-19T04:26:46.748Z,-0.40
2022-12-19T04:29:16.109Z,0.00
2022-12-19T04:31:46.520Z,-0.10
2022-12-19T04:34:22.099Z,0.00
2022-12-19T04:36:51.434Z,0.00
2022-12-19T04:39:20.409Z,0.00
2022-12-19T04:41:48.827Z,-0.10
2022-12-19T04:44:19.886Z,0.00
2022-12-19T04:46:48.553Z,-0.10
2022-12-19T04:49:18.097Z,0.00
2022-12-19T04:51:46.712Z,0.00
2022-12-19T04:54:14.599Z,0.00
2022-12-19T04:56:42.771Z,0.00
2022-12-19T04:59:11.247Z,-0.10
2022-12-19T05:01:39.520Z,-0.10
2022-12-19T05:04:07.793Z,-0.10
2022-12-19T05:06:37.154Z,-0.10
2022-12-19T05:09:05.447Z,-0.10
2022-12-19T05:11:34.898Z,-0.10
2022-12-19T05:14:03.374Z,0.00
2022-12-19T05:16:31.366Z,0.00
2022-12-19T05:18:59.636Z,0.00
2022-12-19T05:21:27.756Z,0.00
2022-12-19T05:23:57.269Z,0.00
2022-12-19T05:26:25.345Z,0.00
2022-12-19T05:28:53.780Z,0.00
2022-12-19T05:31:24.845Z,0.00
2022-12-19T05:33:53.109Z,0.00
2022-12-19T05:36:24.533Z,0.00
2022-12-19T05:38:57.159Z,0.30
2022-12-19T05:41:25.212Z,0.10
2022-12-19T05:43:55.001Z,0.20
2022-12-19T05:46:24.103Z,0.20
2022-12-19T05:48:54.228Z,0.10
2022-12-19T05:51:22.854Z,0.20
2022-12-19T05:53:50.937Z,0.20
2022-12-19T05:56:23.350Z,0.20
2022-12-19T05:58:51.642Z,0.30
2022-12-19T06:01:22.413Z,0.60
2022-12-19T06:03:50.928Z,0.30
2022-12-19T06:06:24.280Z,0.30
2022-12-19T06:08:55.006Z,0.40
2022-12-19T06:11:24.890Z,0.40
2022-12-19T06:13:52.890Z,0.50
2022-12-19T06:16:23.496Z,0.40
2022-12-19T06:18:52.694Z,0.40
2022-12-19T06:21:25.830Z,0.40
2022-12-19T06:23:53.968Z,0.50
2022-12-19T06:26:24.189Z,0.60
2022-12-19T06:28:53.895Z,0.40
2022-12-19T06:31:23.168Z,0.50
2022-12-19T06:33:54.910Z,0.50
2022-12-19T06:36:24.655Z,0.50
2022-12-19T06:38:54.545Z,0.60
2022-12-19T06:41:41.757Z,0.50
2022-12-19T06:44:12.178Z,0.60
2022-12-19T06:46:41.502Z,0.60
2022-12-19T06:49:10.033Z,0.60
2022-12-19T06:51:38.208Z,0.60
2022-12-19T06:54:06.594Z,0.60
2022-12-19T06:56:42.208Z,0.70
2022-12-19T06:59:16.178Z,0.70
2022-12-19T07:01:54.039Z,0.70
2022-12-19T07:04:27.803Z,0.70
2022-12-19T07:06:56.630Z,0.60
2022-12-19T07:09:24.574Z,0.40
2022-12-19T07:11:54.016Z,0.70
2022-12-19T07:14:22.244Z,0.70
2022-12-19T07:16:52.138Z,0.60
2022-12-19T07:19:21.201Z,0.60
2022-12-19T07:21:50.137Z,0.70
2022-12-19T07:24:19.188Z,0.80
2022-12-19T07:26:47.373Z,0.80
2022-12-19T07:29:17.376Z,0.80
2022-12-19T07:31:45.655Z,0.80
2022-12-19T07:34:13.547Z,0.90
2022-12-19T07:36:41.992Z,0.90
2022-12-19T07:39:10.242Z,0.90
2022-12-19T07:41:38.485Z,1.00
2022-12-19T07:44:08.680Z,1.00
2022-12-19T07:46:38.247Z,1.10
2022-12-19T07:49:06.461Z,1.10
2022-12-19T07:51:34.598Z,1.10
2022-12-19T07:54:02.585Z,1.20
2022-12-19T07:56:32.590Z,1.20
2022-12-19T07:59:00.917Z,1.20
2022-12-19T08:01:29.741Z,1.20
2022-12-19T08:04:00.420Z,1.20
2022-12-19T08:06:29.522Z,1.30
2022-12-19T08:09:05.446Z,1.30
2022-12-19T08:11:33.437Z,1.30
2022-12-19T08:14:01.545Z,1.20
2022-12-19T08:16:29.503Z,1.30
2022-12-19T08:18:57.519Z,1.40
2022-12-19T08:21:26.973Z,1.50
2022-12-19T08:23:55.277Z,1.70
2022-12-19T08:26:26.055Z,1.70
2022-12-19T08:28:54.534Z,1.60
2022-12-19T08:31:25.129Z,1.70
2022-12-19T08:33:54.868Z,1.70
2022-12-19T08:36:23.156Z,1.70
2022-12-19T08:38:53.840Z,1.70
2022-12-19T08:41:22.193Z,1.70
2022-12-19T08:43:53.992Z,1.80
2022-12-19T08:46:23.042Z,1.80
2022-12-19T08:48:52.531Z,1.50
2022-12-19T08:51:20.940Z,1.80
2022-12-19T08:53:49.276Z,1.80
2022-12-19T08:56:20.936Z,2.00
2022-12-19T08:58:49.949Z,1.90
2022-12-19T09:01:20.576Z,1.90
2022-12-19T09:04:27.909Z,1.40
2022-12-19T09:06:37.367Z,2.00
2022-12-19T09:09:06.688Z,2.00
2022-12-19T09:11:37.607Z,2.10
2022-12-19T09:14:20.939Z,2.20
2022-12-19T09:16:49.082Z,2.10
2022-12-19T09:19:18.168Z,2.00
2022-12-19T09:21:48.821Z,2.00
2022-12-19T09:24:17.004Z,2.30
2022-12-19T09:26:46.549Z,4.60
2022-12-19T09:29:20.570Z,2.40
2022-12-19T09:31:55.525Z,2.00
2022-12-19T09:34:31.779Z,2.40
2022-12-19T09:37:05.246Z,2.40
2022-12-19T09:39:34.153Z,2.40
2022-12-19T09:42:26.836Z,2.50
2022-12-19T09:45:08.276Z,2.50
2022-12-19T09:47:40.010Z,2.60
2022-12-19T09:50:24.301Z,2.70
2022-12-19T09:52:59.139Z,2.80
2022-12-19T09:55:34.769Z,2.90
2022-12-19T09:58:09.236Z,2.60
2022-12-19T10:00:42.444Z,3.00
2022-12-19T10:03:20.531Z,2.80
2022-12-19T10:07:08.829Z,2.90
2022-12-19T10:09:02.593Z,2.90
2022-12-19T10:12:44.384Z,3.00
2022-12-19T10:14:58.594Z,3.40
2022-12-19T10:17:36.846Z,3.00
2022-12-19T10:20:25.360Z,3.10
2022-12-19T10:23:03.994Z,3.10
2022-12-19T10:25:47.677Z,3.40
2022-12-19T10:28:28.870Z,3.20
2022-12-19T10:31:13.991Z,3.30
2022-12-19T10:33:47.956Z,3.30
2022-12-19T10:36:15.858Z,3.40
2022-12-19T10:38:55.461Z,3.40
2022-12-19T10:41:29.296Z,3.40
2022-12-19T10:44:05.727Z,3.80
2022-12-19T10:46:41.117Z,3.50
2022-12-19T10:49:15.264Z,3.50
2022-12-19T10:51:43.748Z,3.70
2022-12-19T10:54:11.783Z,3.50
2022-12-19T10:56:40.108Z,3.60
2022-12-19T10:59:18.056Z,3.60
2022-12-19T11:01:54.171Z,5.80
2022-12-19T11:04:32.499Z,3.70
2022-12-19T11:07:18.428Z,4.20
2022-12-19T11:09:59.959Z,4.00
2022-12-19T11:16:05.815Z,4.00
2022-12-19T11:19:17.637Z,4.00
2022-12-19T11:26:34.453Z,4.20
2022-12-19T11:29:40.502Z,4.50
2022-12-19T11:30:05.172Z,4.20
2022-12-19T11:30:49.024Z,4.20
2022-12-19T11:32:43.786Z,4.10
2022-12-19T11:35:36.744Z,4.10
2022-12-19T11:38:08.474Z,3.90
2022-12-19T11:40:46.536Z,4.20
2022-12-19T11:43:43.656Z,4.30
2022-12-19T11:46:25.562Z,4.40
2022-12-19T11:48:57.819Z,4.10
2022-12-19T11:51:34.571Z,4.00
2022-12-19T11:54:12.848Z,4.30
2022-12-19T11:56:41.092Z,4.20
2022-12-19T11:59:19.689Z,4.20
2022-12-19T12:02:01.692Z,4.30
2022-12-19T12:04:51.988Z,4.20
2022-12-19T12:08:35.414Z,4.80
2022-12-19T12:15:10.025Z,4.40
2022-12-19T12:22:09.835Z,4.40
2022-12-19T12:29:41.623Z,4.40
2022-12-19T12:31:13.019Z,4.50
2022-12-19T12:31:28.140Z,4.60
2022-12-19T12:31:53.069Z,4.70
2022-12-19T12:35:08.606Z,4.70
2022-12-19T12:35:30.461Z,4.70
2022-12-19T12:40:50.557Z,4.50
2022-12-19T12:43:32.645Z,4.60
2022-12-19T12:46:01.238Z,4.60
2022-12-19T12:48:34.293Z,4.60
2022-12-19T12:51:04.019Z,4.60
2022-12-19T12:53:38.287Z,4.60
2022-12-19T12:56:11.458Z,4.60
2022-12-19T12:59:08.662Z,5.30
2022-12-19T13:01:43.655Z,4.80
2022-12-19T13:04:26.060Z,4.80
2022-12-19T13:07:20.088Z,4.70
2022-12-19T13:09:54.880Z,4.30
2022-12-19T13:12:44.974Z,4.70
2022-12-19T13:15:43.482Z,4.70
2022-12-19T13:18:33.786Z,4.70
2022-12-19T13:21:04.041Z,4.70
2022-12-19T13:23:49.484Z,4.70
2022-12-19T13:26:51.061Z,4.80
2022-12-19T13:29:36.310Z,4.80
2022-12-19T13:32:14.588Z,4.80
2022-12-19T13:35:07.036Z,4.90
2022-12-19T13:39:54.776Z,4.50
2022-12-19T13:40:34.499Z,4.60
2022-12-19T13:43:33.909Z,4.50
2022-12-19T13:46:08.145Z,4.50
2022-12-19T13:48:41.363Z,4.40
2022-12-19T13:51:11.965Z,4.40
2022-12-19T13:53:40.410Z,4.40
2022-12-19T13:56:14.636Z,4.40
2022-12-19T13:58:48.805Z,3.00
2022-12-19T14:01:24.052Z,4.50
2022-12-19T14:03:54.700Z,4.50
2022-12-19T14:06:26.177Z,4.40
2022-12-19T14:09:46.163Z,4.40
2022-12-19T14:13:43.648Z,4.30
2022-12-19T14:15:13.662Z,4.30
2022-12-19T14:17:49.173Z,4.10
2022-12-19T14:22:10.855Z,4.20
2022-12-19T14:23:09.048Z,4.60
2022-12-19T14:28:15.783Z,4.20
2022-12-19T14:28:39.742Z,4.20
2022-12-19T14:31:12.669Z,4.20
2022-12-19T14:34:04.284Z,4.20
2022-12-19T14:36:34.566Z,4.20
2022-12-19T14:39:23.376Z,4.10
2022-12-19T14:42:11.904Z,4.20
2022-12-19T14:52:34.558Z,4.10
2022-12-19T14:52:35.127Z,4.00
2022-12-19T14:54:23.892Z,4.10
2022-12-19T14:54:28.280Z,4.00
2022-12-19T14:59:03.932Z,4.00
2022-12-19T15:01:36.545Z,3.30
2022-12-19T15:04:50.230Z,3.80
2022-12-19T15:07:08.790Z,3.30
2022-12-19T15:10:58.553Z,3.60
2022-12-19T15:14:49.678Z,3.60
2022-12-19T15:15:58.740Z,3.50
2022-12-19T15:18:28.692Z,3.80
2022-12-19T15:20:59.210Z,3.40
2022-12-19T15:23:29.815Z,3.40
2022-12-19T15:26:05.577Z,3.40
2022-12-19T15:28:39.882Z,3.30
2022-12-19T15:31:15.280Z,3.30
2022-12-19T15:34:06.636Z,3.00
2022-12-19T15:36:31.628Z,3.60
2022-12-19T15:39:01.171Z,3.00
2022-12-19T15:41:31.236Z,3.10
2022-12-19T15:44:04.004Z,3.10
2022-12-19T15:46:34.064Z,3.10
2022-12-19T15:49:02.281Z,3.00
2022-12-19T15:51:30.318Z,2.80
2022-12-19T15:54:22.202Z,2.90
2022-12-19T15:56:51.249Z,2.90
2022-12-19T15:59:24.588Z,2.80
2022-12-19T16:01:56.464Z,2.80
2022-12-19T16:04:25.743Z,2.80
2022-12-19T16:06:54.110Z,3.40
2022-12-19T16:09:24.166Z,2.70
2022-12-19T16:11:57.640Z,2.70
2022-12-19T16:14:27.545Z,2.60
2022-12-19T16:16:57.672Z,2.90
2022-12-19T16:19:30.252Z,2.70
2022-12-19T16:22:00.743Z,2.50
2022-12-19T16:24:28.806Z,2.30
2022-12-19T16:27:00.389Z,2.50
2022-12-19T16:29:31.481Z,2.50
2022-12-19T16:32:00.920Z,2.50
2022-12-19T16:34:31.351Z,2.50
2022-12-19T16:37:01.927Z,2.80
2022-12-19T16:39:30.215Z,2.80
2022-12-19T16:41:59.948Z,2.60
2022-12-19T16:44:32.138Z,2.60
2022-12-19T16:47:00.306Z,2.50
2022-12-19T16:49:28.490Z,4.80
2022-12-19T16:51:56.480Z,2.50
2022-12-19T16:54:24.502Z,2.50
2022-12-19T16:56:56.755Z,2.50
2022-12-19T16:59:32.390Z,2.50
2022-12-19T17:02:01.586Z,2.60
2022-12-19T17:04:30.562Z,2.60
2022-12-19T17:07:00.125Z,2.60
2022-12-19T17:09:28.303Z,2.60
2022-12-19T17:11:59.352Z,2.60
2022-12-19T17:14:31.856Z,2.60
2022-12-19T17:17:01.045Z,2.60
2022-12-19T17:19:37.326Z,2.50
2022-12-19T17:22:12.112Z,2.40
2022-12-19T17:24:40.546Z,2.40
2022-12-19T17:27:08.998Z,2.30
2022-12-19T17:29:38.409Z,2.30
2022-12-19T17:32:09.057Z,2.30
2022-12-19T17:34:37.563Z,2.30
2022-12-19T17:37:07.102Z,2.30
2022-12-19T17:39:35.685Z,2.30
2022-12-19T17:42:16.781Z,2.30
2022-12-19T17:44:46.169Z,2.40
2022-12-19T17:47:16.531Z,2.40
2022-12-19T17:49:44.818Z,2.40
2022-12-19T17:52:15.892Z,2.40
2022-12-19T17:54:44.400Z,2.40
2022-12-19T17:57:15.243Z,2.50
2022-12-19T17:59:43.929Z,2.50
2022-12-19T18:02:21.652Z,2.50
2022-12-19T18:04:50.472Z,2.60
2022-12-19T18:07:19.187Z,2.50
2022-12-19T18:09:48.514Z,2.50
2022-12-19T18:12:16.762Z,2.60
2022-12-19T18:14:44.988Z,2.60
2022-12-19T18:17:14.809Z,2.60
2022-12-19T18:19:44.748Z,2.60
2022-12-19T18:22:14.420Z,2.60
2022-12-19T18:24:42.966Z,2.70
2022-12-19T18:27:11.107Z,2.60
2022-12-19T18:29:39.043Z,2.60
2022-12-19T18:32:23.440Z,2.60
2022-12-19T18:34:53.763Z,2.50
2022-12-19T18:37:21.924Z,2.60
2022-12-19T18:39:56.277Z,2.60
2022-12-19T18:42:26.262Z,2.60
2022-12-19T18:44:54.641Z,2.70
2022-12-19T18:47:25.400Z,2.70
2022-12-19T18:49:55.269Z,2.70
2022-12-19T18:52:23.421Z,2.70
2022-12-19T18:54:51.691Z,2.70
2022-12-19T18:57:20.316Z,2.70
2022-12-19T18:59:50.225Z,2.70
2022-12-19T19:02:28.577Z,2.80
2022-12-19T19:04:58.990Z,2.90
2022-12-19T19:07:27.342Z,2.80
2022-12-19T19:09:55.557Z,2.90
2022-12-19T19:12:23.677Z,2.90
2022-12-19T19:14:52.159Z,2.80
2022-12-19T19:17:29.297Z,2.90
2022-12-19T19:19:59.071Z,2.90
2022-12-19T19:22:27.268Z,2.90
2022-12-19T19:24:55.807Z,2.90
2022-12-19T19:27:23.784Z,3.00
2022-12-19T19:29:53.409Z,2.90
2022-12-19T19:32:21.603Z,3.00
2022-12-19T19:34:53.407Z,3.00
2022-12-19T19:37:24.066Z,3.00
2022-12-19T19:39:52.687Z,3.00
2022-12-19T19:42:20.982Z,2.70
2022-12-19T19:44:49.146Z,3.00
2022-12-19T19:47:17.344Z,3.10
2022-12-19T19:49:45.526Z,3.10
2022-12-19T19:52:13.524Z,3.00
2022-12-19T19:54:42.883Z,3.10
2022-12-19T19:57:11.044Z,3.10
2022-12-19T19:59:39.593Z,3.10
2022-12-19T20:02:11.277Z,3.10
2022-12-19T20:04:40.484Z,3.10
2022-12-19T20:07:08.509Z,3.10
2022-12-19T20:09:37.060Z,3.10
2022-12-19T20:12:07.136Z,3.20
2022-12-19T20:14:36.307Z,3.20
2022-12-19T20:17:05.298Z,3.10
2022-12-19T20:19:33.180Z,3.10
2022-12-19T20:22:01.170Z,3.10
2022-12-19T20:24:30.650Z,3.10
2022-12-19T20:26:59.712Z,3.10
2022-12-19T20:29:30.388Z,3.10
2022-12-19T20:32:01.520Z,3.10
2022-12-19T20:34:29.870Z,3.20
2022-12-19T20:36:59.400Z,3.10
2022-12-19T20:39:27.527Z,3.10
2022-12-19T20:41:55.832Z,3.10
2022-12-19T20:44:24.839Z,3.20
2022-12-19T20:46:57.696Z,3.30
2022-12-19T20:49:25.813Z,3.10
2022-12-19T20:51:54.259Z,3.20
2022-12-19T20:54:23.638Z,3.20
2022-12-19T20:56:51.741Z,3.20
2022-12-19T20:59:20.341Z,3.20
2022-12-19T21:01:48.445Z,3.20
2022-12-19T21:04:19.200Z,3.20
2022-12-19T21:06:47.508Z,3.20
2022-12-19T21:09:15.545Z,3.20
2022-12-19T21:11:43.608Z,3.20
2022-12-19T21:14:12.254Z,3.20
2022-12-19T21:16:40.505Z,3.20
2022-12-19T21:19:09.021Z,3.00
2022-12-19T21:21:38.496Z,3.20
2022-12-19T21:24:07.396Z,3.30
2022-12-19T21:26:35.593Z,3.30
2022-12-19T21:29:03.715Z,3.30
2022-12-19T21:31:32.069Z,3.30
2022-12-19T21:34:02.153Z,3.30
2022-12-19T21:36:32.441Z,3.40
2022-12-19T21:39:03.051Z,3.40
2022-12-19T21:41:31.885Z,3.40
2022-12-19T21:44:01.092Z,3.40
2022-12-19T21:46:33.323Z,3.40
2022-12-19T21:49:02.848Z,3.40
2022-12-19T21:51:32.573Z,3.50
2022-12-19T21:54:04.492Z,3.50
2022-12-19T21:56:34.453Z,3.50
2022-12-19T21:59:05.029Z,3.60
2022-12-19T22:01:35.111Z,3.60
2022-12-19T22:04:06.362Z,3.60
2022-12-19T22:06:37.145Z,3.60
2022-12-19T22:09:09.982Z,3.60
2022-12-19T22:11:40.669Z,3.70
2022-12-19T22:14:12.600Z,3.80
2022-12-19T22:16:40.951Z,3.80
2022-12-19T22:19:10.997Z,3.80
2022-12-19T22:21:39.139Z,3.80
2022-12-19T22:24:14.338Z,3.90
2022-12-19T22:26:42.679Z,3.90
2022-12-19T22:29:14.541Z,3.90
2022-12-19T22:31:42.866Z,3.80
2022-12-19T22:34:12.980Z,3.90
2022-12-19T22:36:42.638Z,3.90
2022-12-19T22:39:14.573Z,3.90
2022-12-19T22:41:43.874Z,4.00
2022-12-19T22:44:18.150Z,4.00
2022-12-19T22:46:49.008Z,4.10
2022-12-19T22:49:17.171Z,4.10
2022-12-19T22:51:48.369Z,4.10
2022-12-19T22:54:19.301Z,4.20
2022-12-19T22:56:50.807Z,4.20
2022-12-19T22:59:19.449Z,4.20
2022-12-19T23:01:49.846Z,4.20
2022-12-19T23:04:18.454Z,4.20
2022-12-19T23:06:46.886Z,4.20
2022-12-19T23:09:17.962Z,4.20
2022-12-19T23:11:48.213Z,4.10
2022-12-19T23:14:19.947Z,4.20
2022-12-19T23:16:49.012Z,4.20
2022-12-19T23:19:18.749Z,4.20
2022-12-19T23:21:47.880Z,4.30
2022-12-19T23:24:17.251Z,4.30
2022-12-19T23:26:48.302Z,4.30
2022-12-19T23:29:16.747Z,4.30
2022-12-19T23:31:48.134Z,4.40
2022-12-19T23:34:17.330Z,4.40
2022-12-19T23:37:10.318Z,4.40
2022-12-19T23:39:36.465Z,4.40
2022-12-19T23:42:04.813Z,4.40
2022-12-19T23:44:32.800Z,4.40
2022-12-19T23:47:03.853Z,4.40
2022-12-19T23:49:32.729Z,4.50
2022-12-19T23:52:00.850Z,4.50
2022-12-19T23:54:28.973Z,4.40
2022-12-19T23:56:58.435Z,4.50
2022-12-19T23:59:26.474Z,4.50
